Airfield :
LOGIN :

Register | Disclaimer

   EN    FR    IT 

 










Legend :    VFR   Marginal VFR   IFR   Intensive IFR   Very Intensive IFR
Visi :
Ceiling :
>= 8 km
>= 3000ft
5 to 8 km
1000 to 3000 ft
1500m to 5 km
500 to 1000 ft
800 to 1500m
200 to 500 ft
< 800m
< 200 ft
Symbols :   Thunderstorms  Fog  Heavy snow  Heavy precipitations  Wind > 20 kt
SIGMETs :     Misc.  Thunderstorms  Icing  Turbulence  Mountain Waves  Volcanic Ashes






- Airport Elevation : 90 ft
- IATA code : NTE


LFRS - Nantes

CURRENT METAR :
  • 040300Z AUTO VRB02KT CAVOK 04/03 Q1019 NOSIG

EXPIRED METARs :
  • 040230Z AUTO 04002KT CAVOK 04/03 Q1019 NOSIG
  • 040200Z AUTO 05002KT CAVOK 05/03 Q1019 NOSIG
  • 040130Z AUTO 06003KT CAVOK 05/04 Q1019 NOSIG
  • 040100Z AUTO VRB01KT CAVOK 06/05 Q1019 NOSIG
  • 040030Z AUTO VRB02KT CAVOK 05/04 Q1019 NOSIG

TAF TAF LFRS
Valid from the 04 at 00:00 until the 05 at 06:00 UTC


032300Z 0400/0506 VRB02KT CAVOK
BECMG 0408/0410 12010KT
ATIS : +33 2 40 05 12 74



MET'MAP, your aeronautical weather chart ! - Copyright ORBIFLY December 2007 - Disclaimer

ORBIFLY MET'MAP TEAM :

Programming & Development : Alexandra Zaïnal
Concept & original design : Baudouin d'Aumeries
Assistance for programming : Marc-Olivier Méhu
Technical & hardware support : Manuel Goepfert

Contact : metmap@orbifly.com




SOURCES & CREDITS :

   NOAA